KHMN/HMN METAR and TAF weather

Enter ICAO airport designator
Station Type Date Time Source
KHMN METAR 2022/11/27 07:55 UTC NOAA

KHMN 270755Z AUTO 10004KT 10SM CLR M01/M12 A2997 RMK AO2 SLP134 T10061117 $


Station Type Date Time Source
KHMN Decoded METAR 2022/11/27 07:55 UTC NOAA

Holloman Air Force Base, NM, United States (KHMN) 32-51N 106-06W 1248M
Nov 27, 2022 - 02:55 AM EST / 2022.11.27 0755 UTC
Wind: from the E (100 degrees) at 5 MPH (4 KT):0
Visibility: 10 mile(s):0
Sky conditions: clear
Temperature: 30.9 F (-0.6 C)
Windchill: 26 F (-3 C):1
Dew Point: 10.9 F (-11.7 C)
Relative Humidity: 42%
Pressure (altimeter): 29.97 in. Hg (1014 hPa)
ob: KHMN 270755Z AUTO 10004KT 10SM CLR M01/M12 A2997 RMK AO2 SLP134 T10061117
cycle: 8

Station Type Date Time Source
KHMN TAF 2022/11/23 20:31 UTC NOAA

TAF
AMD KHMN 232027Z 2320/2423 VRB06KT 9999 FEW250 QNH2995INS
BECMG 2418/2419 34009KT 9999 SCT080 QNH3008INS
TEMPO 2419/2423 35015G25KT TX15/2321Z TNM06/2413Z LAST NO
AMDS AFT 2320 NEXT 2809

Example: see airport list